sensor_id;sensor_type;location;lat;lon;timestamp;P1;durP1;ratioP1;P2;durP2;ratioP2
30173;SDS011;16985;50.814;8.530;2023-06-26T00:01:29;8.63;;;6.43;;
30173;SDS011;16985;50.814;8.530;2023-06-26T00:03:56;9.65;;;6.03;;
30173;SDS011;16985;50.814;8.530;2023-06-26T00:06:24;9.03;;;5.70;;
30173;SDS011;16985;50.814;8.530;2023-06-26T00:08:51;8.73;;;6.20;;
30173;SDS011;16985;50.814;8.530;2023-06-26T00:11:20;7.20;;;5.75;;
30173;SDS011;16985;50.814;8.530;2023-06-26T00:13:47;8.02;;;5.90;;
30173;SDS011;16985;50.814;8.530;2023-06-26T00:16:27;7.53;;;5.90;;
30173;SDS011;16985;50.814;8.530;2023-06-26T00:18:53;8.02;;;5.93;;
30173;SDS011;16985;50.814;8.530;2023-06-26T00:21:19;8.05;;;5.88;;
30173;SDS011;16985;50.814;8.530;2023-06-26T00:23:45;7.97;;;6.55;;
30173;SDS011;16985;50.814;8.530;2023-06-26T00:26:11;6.45;;;5.80;;
30173;SDS011;16985;50.814;8.530;2023-06-26T00:28:37;10.35;;;6.35;;
30173;SDS011;16985;50.814;8.530;2023-06-26T00:31:03;8.05;;;5.82;;
30173;SDS011;16985;50.814;8.530;2023-06-26T00:33:29;10.45;;;6.20;;
30173;SDS011;16985;50.814;8.530;2023-06-26T00:35:56;9.25;;;6.22;;
30173;SDS011;16985;50.814;8.530;2023-06-26T00:38:22;7.95;;;5.90;;
30173;SDS011;16985;50.814;8.530;2023-06-26T00:40:48;8.68;;;6.32;;
30173;SDS011;16985;50.814;8.530;2023-06-26T00:43:14;7.93;;;6.28;;
30173;SDS011;16985;50.814;8.530;2023-06-26T00:45:40;7.50;;;5.65;;
30173;SDS011;16985;50.814;8.530;2023-06-26T00:48:06;8.55;;;6.35;;
30173;SDS011;16985;50.814;8.530;2023-06-26T00:50:32;9.77;;;6.38;;
30173;SDS011;16985;50.814;8.530;2023-06-26T00:52:58;6.35;;;5.50;;
30173;SDS011;16985;50.814;8.530;2023-06-26T00:55:28;10.15;;;6.53;;
30173;SDS011;16985;50.814;8.530;2023-06-26T00:57:55;9.77;;;6.43;;
30173;SDS011;16985;50.814;8.530;2023-06-26T01:00:21;8.32;;;5.65;;
30173;SDS011;16985;50.814;8.530;2023-06-26T01:02:47;8.07;;;6.25;;
30173;SDS011;16985;50.814;8.530;2023-06-26T01:05:13;9.00;;;6.10;;
30173;SDS011;16985;50.814;8.530;2023-06-26T01:07:48;8.50;;;6.57;;
30173;SDS011;16985;50.814;8.530;2023-06-26T01:10:14;9.30;;;6.22;;
30173;SDS011;16985;50.814;8.530;2023-06-26T01:12:40;7.88;;;5.95;;
30173;SDS011;16985;50.814;8.530;2023-06-26T01:15:06;9.18;;;6.47;;
30173;SDS011;16985;50.814;8.530;2023-06-26T01:17:32;11.45;;;6.13;;
30173;SDS011;16985;50.814;8.530;2023-06-26T01:19:59;9.20;;;6.63;;
30173;SDS011;16985;50.814;8.530;2023-06-26T01:28:24;7.63;;;5.32;;
30173;SDS011;16985;50.814;8.530;2023-06-26T01:30:52;8.50;;;6.35;;
30173;SDS011;16985;50.814;8.530;2023-06-26T01:33:19;8.75;;;6.25;;
30173;SDS011;16985;50.814;8.530;2023-06-26T01:35:45;7.85;;;6.50;;
30173;SDS011;16985;50.814;8.530;2023-06-26T01:38:19;8.15;;;6.15;;
30173;SDS011;16985;50.814;8.530;2023-06-26T01:40:48;8.32;;;6.45;;
30173;SDS011;16985;50.814;8.530;2023-06-26T01:43:16;10.20;;;6.72;;
30173;SDS011;16985;50.814;8.530;2023-06-26T01:45:50;7.40;;;5.57;;
30173;SDS011;16985;50.814;8.530;2023-06-26T01:48:20;7.95;;;6.20;;
30173;SDS011;16985;50.814;8.530;2023-06-26T01:50:51;7.38;;;6.25;;
30173;SDS011;16985;50.814;8.530;2023-06-26T01:53:19;7.18;;;6.13;;
30173;SDS011;16985;50.814;8.530;2023-06-26T01:55:51;6.53;;;5.68;;
30173;SDS011;16985;50.814;8.530;2023-06-26T01:58:23;7.15;;;5.93;;
30173;SDS011;16985;50.814;8.530;2023-06-26T02:03:16;11.07;;;6.43;;
30173;SDS011;16985;50.814;8.530;2023-06-26T02:05:56;10.40;;;6.63;;
30173;SDS011;16985;50.814;8.530;2023-06-26T02:08:22;8.57;;;6.22;;
30173;SDS011;16985;50.814;8.530;2023-06-26T02:10:48;7.55;;;5.88;;
30173;SDS011;16985;50.814;8.530;2023-06-26T02:13:15;8.10;;;6.63;;
30173;SDS011;16985;50.814;8.530;2023-06-26T02:15:41;12.20;;;5.97;;
30173;SDS011;16985;50.814;8.530;2023-06-26T02:18:07;8.05;;;6.25;;
30173;SDS011;16985;50.814;8.530;2023-06-26T02:20:33;10.65;;;6.53;;
30173;SDS011;16985;50.814;8.530;2023-06-26T02:22:59;9.18;;;6.60;;
30173;SDS011;16985;50.814;8.530;2023-06-26T02:25:25;7.85;;;6.30;;
30173;SDS011;16985;50.814;8.530;2023-06-26T02:27:51;7.85;;;6.18;;
30173;SDS011;16985;50.814;8.530;2023-06-26T02:30:18;10.83;;;6.27;;
30173;SDS011;16985;50.814;8.530;2023-06-26T02:32:44;10.43;;;6.53;;
30173;SDS011;16985;50.814;8.530;2023-06-26T02:35:25;8.88;;;6.35;;
30173;SDS011;16985;50.814;8.530;2023-06-26T02:37:51;9.32;;;7.18;;
30173;SDS011;16985;50.814;8.530;2023-06-26T02:40:17;8.90;;;6.28;;
30173;SDS011;16985;50.814;8.530;2023-06-26T02:42:43;9.13;;;7.40;;
30173;SDS011;16985;50.814;8.530;2023-06-26T02:45:09;7.25;;;6.55;;
30173;SDS011;16985;50.814;8.530;2023-06-26T02:47:35;10.40;;;6.85;;
30173;SDS011;16985;50.814;8.530;2023-06-26T02:50:05;8.52;;;6.75;;
30173;SDS011;16985;50.814;8.530;2023-06-26T02:52:48;8.73;;;6.35;;
30173;SDS011;16985;50.814;8.530;2023-06-26T02:55:18;7.85;;;6.35;;
30173;SDS011;16985;50.814;8.530;2023-06-26T02:57:46;9.98;;;6.63;;
30173;SDS011;16985;50.814;8.530;2023-06-26T03:00:15;7.95;;;6.18;;
30173;SDS011;16985;50.814;8.530;2023-06-26T03:02:46;7.57;;;6.20;;
30173;SDS011;16985;50.814;8.530;2023-06-26T03:05:16;9.52;;;7.32;;
30173;SDS011;16985;50.814;8.530;2023-06-26T03:07:42;9.80;;;6.80;;
30173;SDS011;16985;50.814;8.530;2023-06-26T03:10:09;13.68;;;6.72;;
30173;SDS011;16985;50.814;8.530;2023-06-26T03:12:35;6.88;;;6.07;;
30173;SDS011;16985;50.814;8.530;2023-06-26T03:15:00;11.75;;;6.68;;
30173;SDS011;16985;50.814;8.530;2023-06-26T03:17:26;10.68;;;7.55;;
30173;SDS011;16985;50.814;8.530;2023-06-26T03:19:57;9.88;;;6.97;;
30173;SDS011;16985;50.814;8.530;2023-06-26T03:22:29;10.68;;;6.45;;
30173;SDS011;16985;50.814;8.530;2023-06-26T03:24:55;11.13;;;6.90;;
30173;SDS011;16985;50.814;8.530;2023-06-26T03:27:21;9.63;;;6.63;;
30173;SDS011;16985;50.814;8.530;2023-06-26T03:29:48;8.50;;;6.47;;
30173;SDS011;16985;50.814;8.530;2023-06-26T03:32:15;7.82;;;6.32;;
30173;SDS011;16985;50.814;8.530;2023-06-26T03:34:41;10.25;;;7.05;;
30173;SDS011;16985;50.814;8.530;2023-06-26T03:37:07;7.93;;;6.35;;
30173;SDS011;16985;50.814;8.530;2023-06-26T03:39:33;9.35;;;6.85;;
30173;SDS011;16985;50.814;8.530;2023-06-26T03:41:59;7.40;;;6.47;;
30173;SDS011;16985;50.814;8.530;2023-06-26T03:44:26;9.05;;;6.38;;
30173;SDS011;16985;50.814;8.530;2023-06-26T03:46:53;8.13;;;6.57;;
30173;SDS011;16985;50.814;8.530;2023-06-26T03:49:19;8.10;;;7.28;;
30173;SDS011;16985;50.814;8.530;2023-06-26T03:51:45;8.10;;;6.50;;
30173;SDS011;16985;50.814;8.530;2023-06-26T03:54:12;7.40;;;6.47;;
30173;SDS011;16985;50.814;8.530;2023-06-26T03:56:38;7.85;;;6.10;;
30173;SDS011;16985;50.814;8.530;2023-06-26T03:59:04;10.30;;;6.57;;
30173;SDS011;16985;50.814;8.530;2023-06-26T04:01:30;8.68;;;6.50;;
30173;SDS011;16985;50.814;8.530;2023-06-26T04:03:56;8.60;;;6.43;;
30173;SDS011;16985;50.814;8.530;2023-06-26T04:06:22;8.75;;;7.30;;
30173;SDS011;16985;50.814;8.530;2023-06-26T04:08:48;9.05;;;6.38;;
30173;SDS011;16985;50.814;8.530;2023-06-26T04:11:15;11.70;;;6.80;;
30173;SDS011;16985;50.814;8.530;2023-06-26T04:13:40;7.30;;;6.07;;
30173;SDS011;16985;50.814;8.530;2023-06-26T04:16:06;8.07;;;5.95;;
30173;SDS011;16985;50.814;8.530;2023-06-26T04:18:32;7.55;;;5.78;;
30173;SDS011;16985;50.814;8.530;2023-06-26T04:21:10;9.82;;;6.78;;
30173;SDS011;16985;50.814;8.530;2023-06-26T04:23:38;10.40;;;7.32;;
30173;SDS011;16985;50.814;8.530;2023-06-26T04:26:06;11.02;;;6.80;;
30173;SDS011;16985;50.814;8.530;2023-06-26T04:28:38;8.52;;;6.65;;
30173;SDS011;16985;50.814;8.530;2023-06-26T04:31:04;9.85;;;6.07;;
30173;SDS011;16985;50.814;8.530;2023-06-26T04:33:30;11.10;;;6.72;;
30173;SDS011;16985;50.814;8.530;2023-06-26T04:35:56;8.55;;;6.82;;
30173;SDS011;16985;50.814;8.530;2023-06-26T04:38:22;8.73;;;6.55;;
30173;SDS011;16985;50.814;8.530;2023-06-26T04:40:48;10.15;;;7.65;;
30173;SDS011;16985;50.814;8.530;2023-06-26T04:43:14;11.77;;;6.60;;
30173;SDS011;16985;50.814;8.530;2023-06-26T04:45:55;9.55;;;7.38;;
30173;SDS011;16985;50.814;8.530;2023-06-26T04:48:21;11.55;;;7.75;;
30173;SDS011;16985;50.814;8.530;2023-06-26T04:50:47;9.13;;;6.82;;
30173;SDS011;16985;50.814;8.530;2023-06-26T04:53:18;8.48;;;6.50;;
30173;SDS011;16985;50.814;8.530;2023-06-26T04:55:49;8.95;;;7.45;;
30173;SDS011;16985;50.814;8.530;2023-06-26T04:58:16;11.63;;;7.07;;
30173;SDS011;16985;50.814;8.530;2023-06-26T05:00:41;9.75;;;7.43;;
30173;SDS011;16985;50.814;8.530;2023-06-26T05:03:11;9.82;;;7.45;;
30173;SDS011;16985;50.814;8.530;2023-06-26T05:05:38;8.73;;;7.20;;
30173;SDS011;16985;50.814;8.530;2023-06-26T05:08:24;10.75;;;7.18;;
30173;SDS011;16985;50.814;8.530;2023-06-26T05:10:52;10.20;;;7.68;;
30173;SDS011;16985;50.814;8.530;2023-06-26T05:13:34;14.63;;;7.85;;
30173;SDS011;16985;50.814;8.530;2023-06-26T05:15:59;9.93;;;7.65;;
30173;SDS011;16985;50.814;8.530;2023-06-26T05:18:25;9.35;;;7.25;;
30173;SDS011;16985;50.814;8.530;2023-06-26T05:20:51;9.15;;;7.78;;
30173;SDS011;16985;50.814;8.530;2023-06-26T05:23:17;11.02;;;8.05;;
30173;SDS011;16985;50.814;8.530;2023-06-26T05:25:44;10.20;;;7.70;;
30173;SDS011;16985;50.814;8.530;2023-06-26T05:28:11;11.18;;;7.82;;
30173;SDS011;16985;50.814;8.530;2023-06-26T05:30:37;10.25;;;7.63;;
30173;SDS011;16985;50.814;8.530;2023-06-26T05:33:03;10.32;;;7.82;;
30173;SDS011;16985;50.814;8.530;2023-06-26T05:35:31;9.55;;;7.85;;
30173;SDS011;16985;50.814;8.530;2023-06-26T05:37:57;10.85;;;7.80;;
30173;SDS011;16985;50.814;8.530;2023-06-26T05:40:24;11.75;;;7.97;;
30173;SDS011;16985;50.814;8.530;2023-06-26T05:42:51;9.70;;;7.32;;
30173;SDS011;16985;50.814;8.530;2023-06-26T05:45:21;10.27;;;7.75;;
30173;SDS011;16985;50.814;8.530;2023-06-26T05:47:48;10.23;;;7.93;;
30173;SDS011;16985;50.814;8.530;2023-06-26T05:50:15;13.43;;;8.05;;
30173;SDS011;16985;50.814;8.530;2023-06-26T05:52:42;14.27;;;8.27;;
30173;SDS011;16985;50.814;8.530;2023-06-26T05:55:09;10.70;;;7.97;;
30173;SDS011;16985;50.814;8.530;2023-06-26T05:57:36;12.05;;;8.35;;
30173;SDS011;16985;50.814;8.530;2023-06-26T06:00:05;9.55;;;7.90;;
30173;SDS011;16985;50.814;8.530;2023-06-26T06:02:38;14.00;;;7.78;;
30173;SDS011;16985;50.814;8.530;2023-06-26T06:05:06;8.20;;;7.32;;
30173;SDS011;16985;50.814;8.530;2023-06-26T06:07:33;10.52;;;7.30;;
30173;SDS011;16985;50.814;8.530;2023-06-26T06:09:59;10.52;;;8.70;;
30173;SDS011;16985;50.814;8.530;2023-06-26T06:12:26;11.80;;;7.75;;
30173;SDS011;16985;50.814;8.530;2023-06-26T06:14:52;12.02;;;8.05;;
30173;SDS011;16985;50.814;8.530;2023-06-26T06:17:21;11.73;;;7.80;;
30173;SDS011;16985;50.814;8.530;2023-06-26T06:19:47;13.45;;;8.10;;
30173;SDS011;16985;50.814;8.530;2023-06-26T06:22:13;13.05;;;8.38;;
30173;SDS011;16985;50.814;8.530;2023-06-26T06:24:39;9.40;;;7.50;;
30173;SDS011;16985;50.814;8.530;2023-06-26T06:27:05;9.98;;;8.10;;
30173;SDS011;16985;50.814;8.530;2023-06-26T06:29:30;13.80;;;8.48;;
30173;SDS011;16985;50.814;8.530;2023-06-26T06:31:56;10.60;;;8.75;;
30173;SDS011;16985;50.814;8.530;2023-06-26T06:34:22;10.00;;;8.35;;
30173;SDS011;16985;50.814;8.530;2023-06-26T06:36:48;9.43;;;7.60;;
30173;SDS011;16985;50.814;8.530;2023-06-26T06:39:15;9.48;;;7.97;;
30173;SDS011;16985;50.814;8.530;2023-06-26T06:41:41;10.35;;;8.32;;
30173;SDS011;16985;50.814;8.530;2023-06-26T06:44:07;11.10;;;8.27;;
30173;SDS011;16985;50.814;8.530;2023-06-26T06:46:32;10.70;;;8.48;;
30173;SDS011;16985;50.814;8.530;2023-06-26T06:48:58;14.57;;;8.68;;
30173;SDS011;16985;50.814;8.530;2023-06-26T06:51:25;9.98;;;7.90;;
30173;SDS011;16985;50.814;8.530;2023-06-26T06:53:51;10.25;;;7.93;;
30173;SDS011;16985;50.814;8.530;2023-06-26T06:56:17;10.50;;;8.15;;
30173;SDS011;16985;50.814;8.530;2023-06-26T06:58:57;11.40;;;8.55;;
30173;SDS011;16985;50.814;8.530;2023-06-26T07:01:23;11.23;;;8.45;;
30173;SDS011;16985;50.814;8.530;2023-06-26T07:03:49;8.38;;;6.65;;
30173;SDS011;16985;50.814;8.530;2023-06-26T07:06:15;8.30;;;6.72;;
30173;SDS011;16985;50.814;8.530;2023-06-26T07:08:41;9.27;;;6.25;;
30173;SDS011;16985;50.814;8.530;2023-06-26T07:11:06;11.38;;;6.70;;
30173;SDS011;16985;50.814;8.530;2023-06-26T07:13:32;11.73;;;6.82;;
30173;SDS011;16985;50.814;8.530;2023-06-26T07:15:58;13.88;;;6.53;;
30173;SDS011;16985;50.814;8.530;2023-06-26T07:18:24;6.93;;;6.18;;
30173;SDS011;16985;50.814;8.530;2023-06-26T07:20:52;9.65;;;6.28;;
30173;SDS011;16985;50.814;8.530;2023-06-26T07:23:18;9.32;;;7.30;;
30173;SDS011;16985;50.814;8.530;2023-06-26T07:25:44;11.48;;;6.32;;
30173;SDS011;16985;50.814;8.530;2023-06-26T07:28:10;11.40;;;6.63;;
30173;SDS011;16985;50.814;8.530;2023-06-26T07:30:37;9.45;;;6.47;;
30173;SDS011;16985;50.814;8.530;2023-06-26T07:33:03;7.40;;;6.20;;
30173;SDS011;16985;50.814;8.530;2023-06-26T07:35:29;9.77;;;6.95;;
30173;SDS011;16985;50.814;8.530;2023-06-26T07:37:55;8.57;;;6.95;;
30173;SDS011;16985;50.814;8.530;2023-06-26T07:40:21;7.65;;;6.72;;
30173;SDS011;16985;50.814;8.530;2023-06-26T07:42:47;8.52;;;6.78;;
30173;SDS011;16985;50.814;8.530;2023-06-26T07:45:13;9.07;;;6.78;;
30173;SDS011;16985;50.814;8.530;2023-06-26T07:47:39;11.35;;;7.00;;
30173;SDS011;16985;50.814;8.530;2023-06-26T07:50:05;13.80;;;7.90;;
30173;SDS011;16985;50.814;8.530;2023-06-26T07:52:30;13.00;;;6.53;;
30173;SDS011;16985;50.814;8.530;2023-06-26T07:54:57;14.85;;;7.20;;
30173;SDS011;16985;50.814;8.530;2023-06-26T07:57:23;12.80;;;8.02;;
30173;SDS011;16985;50.814;8.530;2023-06-26T07:59:49;10.20;;;6.47;;
30173;SDS011;16985;50.814;8.530;2023-06-26T08:02:15;13.52;;;6.70;;
30173;SDS011;16985;50.814;8.530;2023-06-26T08:04:41;7.72;;;6.20;;
30173;SDS011;16985;50.814;8.530;2023-06-26T08:07:09;12.00;;;6.53;;
30173;SDS011;16985;50.814;8.530;2023-06-26T08:09:35;9.10;;;6.95;;
30173;SDS011;16985;50.814;8.530;2023-06-26T08:12:01;12.15;;;7.38;;
30173;SDS011;16985;50.814;8.530;2023-06-26T08:14:27;16.50;;;6.13;;
30173;SDS011;16985;50.814;8.530;2023-06-26T08:17:02;10.50;;;6.63;;
30173;SDS011;16985;50.814;8.530;2023-06-26T08:19:28;8.60;;;6.82;;
30173;SDS011;16985;50.814;8.530;2023-06-26T08:21:53;9.35;;;5.65;;
30173;SDS011;16985;50.814;8.530;2023-06-26T08:24:19;11.80;;;6.30;;
30173;SDS011;16985;50.814;8.530;2023-06-26T08:26:45;9.02;;;6.70;;
30173;SDS011;16985;50.814;8.530;2023-06-26T08:29:12;8.23;;;6.45;;
30173;SDS011;16985;50.814;8.530;2023-06-26T08:31:38;9.90;;;6.97;;
30173;SDS011;16985;50.814;8.530;2023-06-26T08:34:05;10.90;;;6.70;;
30173;SDS011;16985;50.814;8.530;2023-06-26T08:36:31;11.82;;;6.85;;
30173;SDS011;16985;50.814;8.530;2023-06-26T08:38:57;8.52;;;6.60;;
30173;SDS011;16985;50.814;8.530;2023-06-26T08:41:23;7.95;;;5.93;;
30173;SDS011;16985;50.814;8.530;2023-06-26T08:43:49;13.02;;;6.80;;
30173;SDS011;16985;50.814;8.530;2023-06-26T08:46:17;8.77;;;6.35;;
30173;SDS011;16985;50.814;8.530;2023-06-26T08:48:58;8.73;;;6.30;;
30173;SDS011;16985;50.814;8.530;2023-06-26T08:51:33;12.77;;;6.63;;
30173;SDS011;16985;50.814;8.530;2023-06-26T08:54:01;10.93;;;6.45;;
30173;SDS011;16985;50.814;8.530;2023-06-26T08:56:32;11.25;;;6.18;;
30173;SDS011;16985;50.814;8.530;2023-06-26T08:59:03;12.13;;;6.40;;
30173;SDS011;16985;50.814;8.530;2023-06-26T09:01:30;23.42;;;6.38;;
30173;SDS011;16985;50.814;8.530;2023-06-26T09:03:57;17.13;;;6.22;;
30173;SDS011;16985;50.814;8.530;2023-06-26T09:06:22;10.55;;;7.30;;
30173;SDS011;16985;50.814;8.530;2023-06-26T09:08:48;13.95;;;6.55;;
30173;SDS011;16985;50.814;8.530;2023-06-26T09:11:14;12.27;;;6.38;;
30173;SDS011;16985;50.814;8.530;2023-06-26T09:13:40;7.18;;;5.90;;
30173;SDS011;16985;50.814;8.530;2023-06-26T09:16:07;10.63;;;6.97;;
30173;SDS011;16985;50.814;8.530;2023-06-26T09:18:34;13.40;;;6.10;;
30173;SDS011;16985;50.814;8.530;2023-06-26T09:21:11;10.07;;;6.10;;
30173;SDS011;16985;50.814;8.530;2023-06-26T09:23:39;12.55;;;6.30;;
30173;SDS011;16985;50.814;8.530;2023-06-26T09:26:06;26.13;;;7.43;;
30173;SDS011;16985;50.814;8.530;2023-06-26T09:28:32;9.60;;;6.28;;
30173;SDS011;16985;50.814;8.530;2023-06-26T09:31:07;10.73;;;5.93;;
30173;SDS011;16985;50.814;8.530;2023-06-26T09:33:35;6.78;;;5.03;;
30173;SDS011;16985;50.814;8.530;2023-06-26T09:36:09;8.00;;;5.55;;
30173;SDS011;16985;50.814;8.530;2023-06-26T09:38:46;9.25;;;6.05;;
30173;SDS011;16985;50.814;8.530;2023-06-26T09:41:15;7.50;;;5.78;;
30173;SDS011;16985;50.814;8.530;2023-06-26T09:43:46;10.50;;;6.18;;
30173;SDS011;16985;50.814;8.530;2023-06-26T09:46:17;8.35;;;6.03;;
30173;SDS011;16985;50.814;8.530;2023-06-26T09:49:24;8.07;;;5.72;;
30173;SDS011;16985;50.814;8.530;2023-06-26T09:51:43;16.48;;;6.72;;
30173;SDS011;16985;50.814;8.530;2023-06-26T09:54:09;10.68;;;6.03;;
30173;SDS011;16985;50.814;8.530;2023-06-26T09:56:35;10.02;;;6.10;;
30173;SDS011;16985;50.814;8.530;2023-06-26T09:59:02;9.63;;;6.07;;
30173;SDS011;16985;50.814;8.530;2023-06-26T10:01:30;13.80;;;6.43;;
30173;SDS011;16985;50.814;8.530;2023-06-26T10:04:06;9.32;;;5.75;;
30173;SDS011;16985;50.814;8.530;2023-06-26T10:06:33;7.43;;;5.05;;
30173;SDS011;16985;50.814;8.530;2023-06-26T10:09:02;7.97;;;5.10;;
30173;SDS011;16985;50.814;8.530;2023-06-26T10:11:41;6.60;;;4.67;;
30173;SDS011;16985;50.814;8.530;2023-06-26T10:14:26;10.18;;;4.95;;
30173;SDS011;16985;50.814;8.530;2023-06-26T10:16:56;6.35;;;4.75;;
30173;SDS011;16985;50.814;8.530;2023-06-26T10:19:24;7.68;;;4.85;;
30173;SDS011;16985;50.814;8.530;2023-06-26T10:21:52;6.85;;;4.57;;
30173;SDS011;16985;50.814;8.530;2023-06-26T10:24:20;9.77;;;4.28;;
30173;SDS011;16985;50.814;8.530;2023-06-26T10:26:49;6.30;;;4.35;;
30173;SDS011;16985;50.814;8.530;2023-06-26T10:29:22;6.60;;;4.30;;
30173;SDS011;16985;50.814;8.530;2023-06-26T10:31:50;6.50;;;4.93;;
30173;SDS011;16985;50.814;8.530;2023-06-26T10:34:20;6.25;;;4.60;;
30173;SDS011;16985;50.814;8.530;2023-06-26T10:36:46;6.70;;;4.55;;
30173;SDS011;16985;50.814;8.530;2023-06-26T10:39:16;6.90;;;4.43;;
30173;SDS011;16985;50.814;8.530;2023-06-26T10:41:42;8.10;;;5.18;;
30173;SDS011;16985;50.814;8.530;2023-06-26T10:44:09;7.32;;;4.65;;
30173;SDS011;16985;50.814;8.530;2023-06-26T10:46:48;8.10;;;5.25;;
30173;SDS011;16985;50.814;8.530;2023-06-26T10:49:24;9.50;;;4.80;;
30173;SDS011;16985;50.814;8.530;2023-06-26T10:52:00;12.52;;;5.80;;
30173;SDS011;16985;50.814;8.530;2023-06-26T10:54:30;11.35;;;5.63;;
30173;SDS011;16985;50.814;8.530;2023-06-26T10:56:57;8.43;;;5.35;;
30173;SDS011;16985;50.814;8.530;2023-06-26T10:59:26;8.77;;;5.97;;
30173;SDS011;16985;50.814;8.530;2023-06-26T11:01:55;8.90;;;5.70;;
30173;SDS011;16985;50.814;8.530;2023-06-26T11:07:22;9.57;;;5.63;;
30173;SDS011;16985;50.814;8.530;2023-06-26T11:09:56;10.30;;;5.32;;
30173;SDS011;16985;50.814;8.530;2023-06-26T11:15:07;8.40;;;5.32;;
30173;SDS011;16985;50.814;8.530;2023-06-26T11:17:38;10.15;;;5.43;;
30173;SDS011;16985;50.814;8.530;2023-06-26T11:22:37;11.60;;;4.82;;
30173;SDS011;16985;50.814;8.530;2023-06-26T11:25:04;13.73;;;5.38;;
30173;SDS011;16985;50.814;8.530;2023-06-26T11:30:08;13.38;;;5.25;;
30173;SDS011;16985;50.814;8.530;2023-06-26T11:32:36;7.80;;;5.43;;
30173;SDS011;16985;50.814;8.530;2023-06-26T11:35:03;9.83;;;5.27;;
30173;SDS011;16985;50.814;8.530;2023-06-26T11:37:34;9.05;;;5.20;;
30173;SDS011;16985;50.814;8.530;2023-06-26T11:40:15;11.73;;;5.75;;
30173;SDS011;16985;50.814;8.530;2023-06-26T11:42:44;10.95;;;5.65;;
30173;SDS011;16985;50.814;8.530;2023-06-26T11:45:10;8.23;;;4.93;;
30173;SDS011;16985;50.814;8.530;2023-06-26T11:47:37;6.75;;;5.05;;
30173;SDS011;16985;50.814;8.530;2023-06-26T11:52:30;8.45;;;5.20;;
30173;SDS011;16985;50.814;8.530;2023-06-26T11:54:58;8.10;;;4.65;;
30173;SDS011;16985;50.814;8.530;2023-06-26T11:57:24;8.60;;;4.70;;
30173;SDS011;16985;50.814;8.530;2023-06-26T11:59:49;10.00;;;4.93;;
30173;SDS011;16985;50.814;8.530;2023-06-26T12:02:16;9.23;;;4.35;;
30173;SDS011;16985;50.814;8.530;2023-06-26T12:04:43;8.88;;;4.00;;
30173;SDS011;16985;50.814;8.530;2023-06-26T12:07:10;5.43;;;4.15;;
30173;SDS011;16985;50.814;8.530;2023-06-26T12:09:41;6.85;;;4.28;;
30173;SDS011;16985;50.814;8.530;2023-06-26T12:12:11;9.23;;;5.22;;
30173;SDS011;16985;50.814;8.530;2023-06-26T12:14:39;7.07;;;4.45;;
30173;SDS011;16985;50.814;8.530;2023-06-26T12:17:07;8.65;;;4.00;;
30173;SDS011;16985;50.814;8.530;2023-06-26T12:19:39;9.93;;;4.35;;
30173;SDS011;16985;50.814;8.530;2023-06-26T12:22:09;8.57;;;5.25;;
30173;SDS011;16985;50.814;8.530;2023-06-26T12:24:36;9.00;;;3.70;;
30173;SDS011;16985;50.814;8.530;2023-06-26T12:27:07;6.65;;;3.50;;
30173;SDS011;16985;50.814;8.530;2023-06-26T12:29:39;7.47;;;2.95;;
30173;SDS011;16985;50.814;8.530;2023-06-26T12:32:08;8.52;;;3.05;;
30173;SDS011;16985;50.814;8.530;2023-06-26T12:34:36;3.92;;;2.65;;
30173;SDS011;16985;50.814;8.530;2023-06-26T12:37:12;9.00;;;2.88;;
30173;SDS011;16985;50.814;8.530;2023-06-26T12:39:49;7.03;;;3.13;;
30173;SDS011;16985;50.814;8.530;2023-06-26T12:42:25;6.53;;;3.15;;
30173;SDS011;16985;50.814;8.530;2023-06-26T12:44:53;6.95;;;2.88;;
30173;SDS011;16985;50.814;8.530;2023-06-26T12:47:27;14.55;;;2.67;;
30173;SDS011;16985;50.814;8.530;2023-06-26T12:49:55;5.75;;;2.67;;
30173;SDS011;16985;50.814;8.530;2023-06-26T12:52:22;3.67;;;2.10;;
30173;SDS011;16985;50.814;8.530;2023-06-26T12:54:52;6.35;;;2.38;;
30173;SDS011;16985;50.814;8.530;2023-06-26T12:57:19;7.03;;;2.42;;
30173;SDS011;16985;50.814;8.530;2023-06-26T12:59:45;6.82;;;2.58;;
30173;SDS011;16985;50.814;8.530;2023-06-26T13:02:11;5.55;;;2.50;;
30173;SDS011;16985;50.814;8.530;2023-06-26T13:04:37;5.95;;;2.45;;
30173;SDS011;16985;50.814;8.530;2023-06-26T13:07:06;6.28;;;3.33;;
30173;SDS011;16985;50.814;8.530;2023-06-26T13:09:33;12.02;;;3.05;;
30173;SDS011;16985;50.814;8.530;2023-06-26T13:11:59;9.70;;;2.22;;
30173;SDS011;16985;50.814;8.530;2023-06-26T13:14:26;6.38;;;2.72;;
30173;SDS011;16985;50.814;8.530;2023-06-26T13:16:52;4.20;;;2.40;;
30173;SDS011;16985;50.814;8.530;2023-06-26T13:19:18;8.52;;;2.70;;
30173;SDS011;16985;50.814;8.530;2023-06-26T13:21:43;6.28;;;2.83;;
30173;SDS011;16985;50.814;8.530;2023-06-26T13:24:10;6.80;;;2.85;;
30173;SDS011;16985;50.814;8.530;2023-06-26T13:26:36;7.10;;;2.78;;
30173;SDS011;16985;50.814;8.530;2023-06-26T13:29:02;5.10;;;2.30;;
30173;SDS011;16985;50.814;8.530;2023-06-26T13:31:28;5.20;;;2.58;;
30173;SDS011;16985;50.814;8.530;2023-06-26T13:33:56;6.03;;;2.30;;
30173;SDS011;16985;50.814;8.530;2023-06-26T13:36:23;8.27;;;3.10;;
30173;SDS011;16985;50.814;8.530;2023-06-26T13:38:49;5.93;;;2.42;;
30173;SDS011;16985;50.814;8.530;2023-06-26T13:41:21;3.20;;;2.22;;
30173;SDS011;16985;50.814;8.530;2023-06-26T13:43:50;6.38;;;2.50;;
30173;SDS011;16985;50.814;8.530;2023-06-26T13:46:17;4.40;;;2.13;;
30173;SDS011;16985;50.814;8.530;2023-06-26T13:48:43;8.77;;;2.85;;
30173;SDS011;16985;50.814;8.530;2023-06-26T13:51:10;10.25;;;2.30;;
30173;SDS011;16985;50.814;8.530;2023-06-26T13:53:36;8.88;;;3.08;;
30173;SDS011;16985;50.814;8.530;2023-06-26T13:56:02;7.95;;;2.35;;
30173;SDS011;16985;50.814;8.530;2023-06-26T13:58:28;7.45;;;2.45;;
30173;SDS011;16985;50.814;8.530;2023-06-26T14:00:55;6.70;;;2.47;;
30173;SDS011;16985;50.814;8.530;2023-06-26T14:03:20;5.03;;;2.00;;
30173;SDS011;16985;50.814;8.530;2023-06-26T14:05:46;6.78;;;2.22;;
30173;SDS011;16985;50.814;8.530;2023-06-26T14:08:13;3.67;;;1.83;;
30173;SDS011;16985;50.814;8.530;2023-06-26T14:10:38;11.35;;;2.25;;
30173;SDS011;16985;50.814;8.530;2023-06-26T14:13:04;16.80;;;2.70;;
30173;SDS011;16985;50.814;8.530;2023-06-26T14:15:34;9.32;;;2.10;;
30173;SDS011;16985;50.814;8.530;2023-06-26T14:18:00;9.60;;;2.33;;
30173;SDS011;16985;50.814;8.530;2023-06-26T14:20:27;12.88;;;2.08;;
30173;SDS011;16985;50.814;8.530;2023-06-26T14:23:08;6.97;;;1.90;;
30173;SDS011;16985;50.814;8.530;2023-06-26T14:25:33;8.68;;;3.67;;
30173;SDS011;16985;50.814;8.530;2023-06-26T14:27:59;6.78;;;1.90;;
30173;SDS011;16985;50.814;8.530;2023-06-26T14:30:25;5.35;;;2.40;;
30173;SDS011;16985;50.814;8.530;2023-06-26T14:32:51;3.78;;;2.22;;
30173;SDS011;16985;50.814;8.530;2023-06-26T14:35:17;5.45;;;1.90;;
30173;SDS011;16985;50.814;8.530;2023-06-26T14:37:43;9.55;;;3.20;;
30173;SDS011;16985;50.814;8.530;2023-06-26T14:40:09;7.22;;;2.15;;
30173;SDS011;16985;50.814;8.530;2023-06-26T14:42:36;10.38;;;2.97;;
30173;SDS011;16985;50.814;8.530;2023-06-26T14:45:02;6.25;;;2.88;;
30173;SDS011;16985;50.814;8.530;2023-06-26T14:47:28;6.70;;;2.33;;
30173;SDS011;16985;50.814;8.530;2023-06-26T14:49:54;2.80;;;1.80;;
30173;SDS011;16985;50.814;8.530;2023-06-26T14:52:20;5.90;;;1.63;;
30173;SDS011;16985;50.814;8.530;2023-06-26T14:54:45;10.55;;;2.13;;
30173;SDS011;16985;50.814;8.530;2023-06-26T14:57:11;6.28;;;2.20;;
30173;SDS011;16985;50.814;8.530;2023-06-26T14:59:37;5.10;;;1.88;;
30173;SDS011;16985;50.814;8.530;2023-06-26T15:02:03;6.75;;;1.65;;
30173;SDS011;16985;50.814;8.530;2023-06-26T15:04:29;6.10;;;1.80;;
30173;SDS011;16985;50.814;8.530;2023-06-26T15:06:56;8.35;;;2.10;;
30173;SDS011;16985;50.814;8.530;2023-06-26T15:09:31;6.35;;;1.83;;